JBU23 KDCA-KPBI
Flight info
| Callsign | JBU23 |
|---|---|
| Flight time | 2h 2m |
| Altitude | 38000 |
| Route | AMEEE1 SCOOB EARZZ Q131 WAALT Y289 DULEE CLMNT2 |
| Aircraft | A20N/M-SDE2E3FGHIRWXY/LB1 |
Departure
| Time | 2026-05-04 19:24 |
|---|---|
| Airport | Ronald Reagan Washington National Airport (KDCA) |
Arrival
| Time | 2026-05-04 21:27 |
|---|---|
| Airport | Palm Beach International Airport (KPBI) |
| Time | Latitude | Longitude | Altitude | Speed | Heading |
|---|---|---|---|---|---|
| 2026-05-04 19:05 | 38.85362 | -77.04149 | 27 ft | 0 kts | 347° |
| 2026-05-04 19:16 | 38.85356 | -77.04148 | 27 ft | 3 kts | 347° |
| 2026-05-04 19:16 | 38.85338 | -77.04143 | 26 ft | 3 kts | 359° |
| 2026-05-04 19:16 | 38.85320 | -77.04149 | 26 ft | 3 kts | 40° |
| 2026-05-04 19:17 | 38.85311 | -77.04162 | 26 ft | 0 kts | 70° |
| 2026-05-04 19:20 | 38.85311 | -77.04160 | 26 ft | 2 kts | 70° |
| 2026-05-04 19:20 | 38.85317 | -77.04106 | 29 ft | 7 kts | 75° |
| 2026-05-04 19:20 | 38.85334 | -77.04041 | 25 ft | 8 kts | 68° |
| 2026-05-04 19:21 | 38.85364 | -77.03974 | 24 ft | 9 kts | 55° |
| 2026-05-04 19:21 | 38.85406 | -77.03941 | 24 ft | 6 kts | 360° |
| 2026-05-04 19:21 | 38.85442 | -77.03946 | 25 ft | 5 kts | 355° |
| 2026-05-04 19:21 | 38.85506 | -77.03953 | 26 ft | 16 kts | 355° |
| 2026-05-04 19:22 | 38.85670 | -77.03971 | 27 ft | 31 kts | 356° |
| 2026-05-04 19:22 | 38.85889 | -77.03991 | 27 ft | 24 kts | 358° |
| 2026-05-04 19:22 | 38.86001 | -77.03959 | 29 ft | 0 kts | 15° |
| 2026-05-04 19:23 | 38.86065 | -77.03934 | 24 ft | 19 kts | 25° |
| 2026-05-04 19:23 | 38.86087 | -77.03867 | 25 ft | 3 kts | 173° |
| 2026-05-04 19:23 | 38.85979 | -77.03859 | 25 ft | 39 kts | 176° |
| 2026-05-04 19:23 | 38.85493 | -77.03810 | 26 ft | 100 kts | 175° |
| 2026-05-04 19:24 | 38.84624 | -77.03729 | 53 ft | 144 kts | 174° |
| 2026-05-04 19:24 | 38.83639 | -77.03627 | 589 ft | 143 kts | 173° |
| 2026-05-04 19:24 | 38.82615 | -77.03479 | 999 ft | 156 kts | 173° |
| 2026-05-04 19:24 | 38.81498 | -77.03178 | 1380 ft | 170 kts | 169° |
| 2026-05-04 19:25 | 38.80351 | -77.02828 | 2009 ft | 169 kts | 172° |
| 2026-05-04 19:25 | 38.79112 | -77.02552 | 2409 ft | 195 kts | 176° |
| 2026-05-04 19:25 | 38.77673 | -77.02284 | 2769 ft | 219 kts | 175° |
| 2026-05-04 19:25 | 38.76125 | -77.01975 | 3450 ft | 229 kts | 173° |
| 2026-05-04 19:26 | 38.74586 | -77.01258 | 4258 ft | 243 kts | 153° |
| 2026-05-04 19:26 | 38.73115 | -77.00042 | 4809 ft | 261 kts | 148° |
| 2026-05-04 19:26 | 38.71616 | -76.98683 | 4985 ft | 270 kts | 147° |
| 2026-05-04 19:26 | 38.70081 | -76.97280 | 5027 ft | 271 kts | 147° |
| 2026-05-04 19:27 | 38.68523 | -76.95873 | 5501 ft | 275 kts | 148° |
| 2026-05-04 19:27 | 38.66948 | -76.94463 | 6376 ft | 277 kts | 148° |
| 2026-05-04 19:27 | 38.65355 | -76.93042 | 7190 ft | 281 kts | 148° |
| 2026-05-04 19:27 | 38.63732 | -76.91604 | 7984 ft | 286 kts | 148° |
| 2026-05-04 19:28 | 38.62081 | -76.90148 | 8779 ft | 291 kts | 148° |
| 2026-05-04 19:28 | 38.60391 | -76.88657 | 9531 ft | 297 kts | 148° |
| 2026-05-04 19:28 | 38.58671 | -76.87141 | 10218 ft | 304 kts | 148° |
| 2026-05-04 19:28 | 38.56878 | -76.85564 | 10609 ft | 323 kts | 148° |
| 2026-05-04 19:29 | 38.54969 | -76.83882 | 10932 ft | 342 kts | 148° |
| 2026-05-04 19:29 | 38.52972 | -76.82100 | 11278 ft | 359 kts | 148° |
| 2026-05-04 19:29 | 38.50893 | -76.80237 | 11827 ft | 367 kts | 148° |
| 2026-05-04 19:29 | 38.48783 | -76.78347 | 12486 ft | 373 kts | 148° |
| 2026-05-04 19:30 | 38.46679 | -76.76466 | 13160 ft | 377 kts | 148° |
| 2026-05-04 19:30 | 38.44479 | -76.74500 | 13867 ft | 381 kts | 148° |
| 2026-05-04 19:30 | 38.42257 | -76.72641 | 14466 ft | 383 kts | 154° |
| 2026-05-04 19:30 | 38.39837 | -76.71348 | 15073 ft | 381 kts | 168° |
| 2026-05-04 19:31 | 38.37238 | -76.70706 | 15735 ft | 380 kts | 175° |
| 2026-05-04 19:31 | 38.34606 | -76.70270 | 16371 ft | 383 kts | 176° |
| 2026-05-04 19:31 | 38.31940 | -76.69860 | 17007 ft | 388 kts | 176° |
| 2026-05-04 19:31 | 38.29250 | -76.69443 | 17640 ft | 392 kts | 176° |
| 2026-05-04 19:32 | 38.26540 | -76.69017 | 18259 ft | 396 kts | 176° |
| 2026-05-04 19:32 | 38.23775 | -76.68577 | 18785 ft | 400 kts | 176° |
| 2026-05-04 19:32 | 38.21001 | -76.68134 | 19299 ft | 404 kts | 176° |
| 2026-05-04 19:32 | 38.18198 | -76.67685 | 19807 ft | 408 kts | 176° |
| 2026-05-04 19:33 | 38.15370 | -76.67231 | 20324 ft | 412 kts | 176° |
| 2026-05-04 19:33 | 38.12512 | -76.66772 | 20840 ft | 415 kts | 176° |
| 2026-05-04 19:33 | 38.09626 | -76.66356 | 21348 ft | 418 kts | 179° |
| 2026-05-04 19:33 | 38.06712 | -76.66116 | 21877 ft | 420 kts | 180° |
| 2026-05-04 19:34 | 38.03781 | -76.65924 | 22395 ft | 423 kts | 181° |
| 2026-05-04 19:34 | 38.00823 | -76.65735 | 22914 ft | 427 kts | 181° |
| 2026-05-04 19:34 | 37.97847 | -76.65542 | 23418 ft | 430 kts | 181° |
| 2026-05-04 19:34 | 37.95858 | -76.65412 | 23722 ft | 432 kts | 181° |
| 2026-05-04 19:35 | 37.92843 | -76.65213 | 24148 ft | 435 kts | 181° |
| 2026-05-04 19:35 | 37.88812 | -76.64946 | 24701 ft | 439 kts | 181° |
| 2026-05-04 19:35 | 37.86746 | -76.64808 | 24975 ft | 441 kts | 181° |
| 2026-05-04 19:35 | 37.82673 | -76.64537 | 25508 ft | 444 kts | 181° |
| 2026-05-04 19:36 | 37.80581 | -76.64398 | 25773 ft | 446 kts | 181° |
| 2026-05-04 19:36 | 37.77505 | -76.64193 | 26142 ft | 449 kts | 181° |
| 2026-05-04 19:36 | 37.74380 | -76.63985 | 26502 ft | 451 kts | 181° |
| 2026-05-04 19:36 | 37.71236 | -76.63776 | 26879 ft | 454 kts | 182° |
| 2026-05-04 19:37 | 37.68076 | -76.63566 | 27234 ft | 457 kts | 182° |
| 2026-05-04 19:37 | 37.64885 | -76.63354 | 27587 ft | 459 kts | 182° |
| 2026-05-04 19:37 | 37.61682 | -76.63143 | 27931 ft | 462 kts | 182° |
| 2026-05-04 19:37 | 37.58472 | -76.63138 | 28280 ft | 459 kts | 188° |
| 2026-05-04 19:38 | 37.55282 | -76.63413 | 28640 ft | 460 kts | 191° |
| 2026-05-04 19:38 | 37.52093 | -76.63801 | 28978 ft | 461 kts | 192° |
| 2026-05-04 19:38 | 37.48901 | -76.64248 | 29311 ft | 463 kts | 193° |
| 2026-05-04 19:38 | 37.45701 | -76.64717 | 29685 ft | 463 kts | 193° |
| 2026-05-04 19:39 | 37.42490 | -76.65185 | 30158 ft | 462 kts | 193° |
| 2026-05-04 19:39 | 37.39301 | -76.65640 | 30577 ft | 460 kts | 193° |
| 2026-05-04 19:39 | 37.36169 | -76.66078 | 30999 ft | 457 kts | 193° |
| 2026-05-04 19:39 | 37.33018 | -76.66511 | 31431 ft | 455 kts | 193° |
| 2026-05-04 19:40 | 37.29869 | -76.66940 | 31848 ft | 452 kts | 193° |
| 2026-05-04 19:40 | 37.26748 | -76.67364 | 32261 ft | 450 kts | 193° |
| 2026-05-04 19:40 | 37.23646 | -76.67785 | 32671 ft | 447 kts | 193° |
| 2026-05-04 19:40 | 37.20552 | -76.68206 | 33065 ft | 445 kts | 193° |
| 2026-05-04 19:41 | 37.17471 | -76.68625 | 33455 ft | 443 kts | 193° |
| 2026-05-04 19:41 | 37.14415 | -76.69041 | 33834 ft | 441 kts | 194° |
| 2026-05-04 19:41 | 37.11367 | -76.69456 | 34163 ft | 439 kts | 194° |
| 2026-05-04 19:41 | 37.08374 | -76.69864 | 34434 ft | 438 kts | 194° |
| 2026-05-04 19:42 | 37.05308 | -76.70281 | 34699 ft | 436 kts | 194° |
| 2026-05-04 19:42 | 37.02300 | -76.70690 | 34953 ft | 435 kts | 194° |
| 2026-05-04 19:42 | 36.99328 | -76.71094 | 35202 ft | 434 kts | 194° |
| 2026-05-04 19:42 | 36.96317 | -76.71502 | 35446 ft | 433 kts | 194° |
| 2026-05-04 19:43 | 36.93321 | -76.71909 | 35680 ft | 433 kts | 194° |
| 2026-05-04 19:43 | 36.90335 | -76.72313 | 35909 ft | 432 kts | 194° |
| 2026-05-04 19:43 | 36.87343 | -76.72717 | 36145 ft | 431 kts | 194° |
| 2026-05-04 19:43 | 36.84364 | -76.73119 | 36361 ft | 431 kts | 194° |
| 2026-05-04 19:44 | 36.81387 | -76.73521 | 36565 ft | 430 kts | 194° |
| 2026-05-04 19:44 | 36.78414 | -76.73922 | 36768 ft | 430 kts | 194° |
| 2026-05-04 19:44 | 36.75437 | -76.74323 | 36958 ft | 429 kts | 194° |
| 2026-05-04 19:44 | 36.72461 | -76.74723 | 37159 ft | 429 kts | 194° |
| 2026-05-04 19:45 | 36.69494 | -76.75122 | 37331 ft | 428 kts | 194° |
| 2026-05-04 19:45 | 36.66535 | -76.75519 | 37514 ft | 428 kts | 194° |
| 2026-05-04 19:45 | 36.63607 | -76.75912 | 37701 ft | 428 kts | 194° |
| 2026-05-04 19:45 | 36.60650 | -76.76308 | 37880 ft | 427 kts | 194° |
| 2026-05-04 19:46 | 36.57695 | -76.76704 | 38001 ft | 428 kts | 194° |
| 2026-05-04 19:46 | 36.51767 | -76.77498 | 38012 ft | 427 kts | 194° |
| 2026-05-04 19:47 | 36.45870 | -76.78284 | 38014 ft | 426 kts | 194° |
| 2026-05-04 19:47 | 36.39963 | -76.79070 | 38020 ft | 425 kts | 194° |
| 2026-05-04 19:48 | 36.34078 | -76.79853 | 38025 ft | 425 kts | 194° |
| 2026-05-04 19:48 | 36.28242 | -76.80628 | 38023 ft | 424 kts | 194° |
| 2026-05-04 19:49 | 36.22374 | -76.81406 | 38033 ft | 424 kts | 194° |
| 2026-05-04 19:49 | 36.16505 | -76.82182 | 38035 ft | 423 kts | 194° |
| 2026-05-04 19:50 | 36.10653 | -76.82956 | 38039 ft | 423 kts | 194° |
| 2026-05-04 19:50 | 36.04802 | -76.83728 | 38039 ft | 422 kts | 194° |
| 2026-05-04 19:51 | 35.98968 | -76.84497 | 38038 ft | 422 kts | 194° |
| 2026-05-04 19:51 | 35.93186 | -76.85358 | 38040 ft | 417 kts | 199° |
| 2026-05-04 19:52 | 35.87801 | -76.87594 | 38041 ft | 403 kts | 211° |
| 2026-05-04 19:52 | 35.82757 | -76.90571 | 38042 ft | 401 kts | 213° |
| 2026-05-04 19:53 | 35.77777 | -76.93684 | 38038 ft | 401 kts | 213° |
| 2026-05-04 19:53 | 35.72794 | -76.96794 | 38053 ft | 401 kts | 213° |
| 2026-05-04 19:54 | 35.67797 | -76.99878 | 38055 ft | 402 kts | 213° |
| 2026-05-04 19:54 | 35.62822 | -77.02930 | 38054 ft | 402 kts | 213° |
| 2026-05-04 19:55 | 35.57810 | -77.05997 | 38054 ft | 402 kts | 213° |
| 2026-05-04 19:55 | 35.52797 | -77.09061 | 38053 ft | 402 kts | 213° |
| 2026-05-04 19:56 | 35.47788 | -77.12121 | 38050 ft | 402 kts | 213° |
| 2026-05-04 19:56 | 35.42771 | -77.15181 | 38054 ft | 402 kts | 213° |
| 2026-05-04 19:57 | 35.37757 | -77.18235 | 38054 ft | 402 kts | 213° |
| 2026-05-04 19:57 | 35.32767 | -77.21270 | 38056 ft | 402 kts | 213° |
| 2026-05-04 19:58 | 35.27750 | -77.24317 | 38073 ft | 402 kts | 213° |
| 2026-05-04 19:58 | 35.22722 | -77.27366 | 38079 ft | 403 kts | 213° |
| 2026-05-04 19:59 | 35.17701 | -77.30408 | 38077 ft | 403 kts | 213° |
| 2026-05-04 19:59 | 35.12673 | -77.33449 | 38081 ft | 403 kts | 213° |
| 2026-05-04 20:00 | 35.07671 | -77.36470 | 38079 ft | 403 kts | 213° |
| 2026-05-04 20:00 | 35.02643 | -77.39502 | 38075 ft | 403 kts | 212° |
| 2026-05-04 20:01 | 34.97604 | -77.42537 | 38081 ft | 403 kts | 212° |
| 2026-05-04 20:01 | 34.92565 | -77.45568 | 38083 ft | 403 kts | 212° |
| 2026-05-04 20:02 | 34.87528 | -77.48594 | 38083 ft | 403 kts | 212° |
| 2026-05-04 20:02 | 34.82519 | -77.51599 | 38087 ft | 403 kts | 212° |
| 2026-05-04 20:03 | 34.77475 | -77.54621 | 38083 ft | 404 kts | 212° |
| 2026-05-04 20:03 | 34.72426 | -77.57642 | 38081 ft | 404 kts | 212° |
| 2026-05-04 20:04 | 34.67382 | -77.60655 | 38100 ft | 404 kts | 212° |
| 2026-05-04 20:04 | 34.62326 | -77.63671 | 38085 ft | 405 kts | 212° |
| 2026-05-04 20:05 | 34.57231 | -77.66616 | 38084 ft | 409 kts | 207° |
| 2026-05-04 20:05 | 34.51700 | -77.68533 | 38089 ft | 416 kts | 200° |
| 2026-05-04 20:06 | 34.46025 | -77.70026 | 38088 ft | 418 kts | 199° |
| 2026-05-04 20:06 | 34.40306 | -77.71440 | 38087 ft | 419 kts | 198° |
| 2026-05-04 20:07 | 34.34636 | -77.72854 | 38086 ft | 419 kts | 199° |
| 2026-05-04 20:07 | 34.28925 | -77.74297 | 38089 ft | 419 kts | 199° |
| 2026-05-04 20:08 | 34.23213 | -77.75746 | 38089 ft | 419 kts | 199° |
| 2026-05-04 20:08 | 34.17506 | -77.77193 | 38090 ft | 419 kts | 199° |
| 2026-05-04 20:09 | 34.11788 | -77.78640 | 38092 ft | 419 kts | 199° |
| 2026-05-04 20:09 | 34.06102 | -77.80077 | 38094 ft | 419 kts | 199° |
| 2026-05-04 20:10 | 34.00389 | -77.81517 | 38105 ft | 419 kts | 199° |
| 2026-05-04 20:10 | 33.94670 | -77.82958 | 38106 ft | 419 kts | 199° |
| 2026-05-04 20:11 | 33.88953 | -77.84396 | 38105 ft | 419 kts | 199° |
| 2026-05-04 20:11 | 33.83234 | -77.85833 | 38105 ft | 419 kts | 199° |
| 2026-05-04 20:12 | 33.77546 | -77.87345 | 38104 ft | 417 kts | 201° |
| 2026-05-04 20:12 | 33.72005 | -77.89187 | 38103 ft | 415 kts | 203° |
| 2026-05-04 20:13 | 33.66466 | -77.91132 | 38103 ft | 414 kts | 203° |
| 2026-05-04 20:13 | 33.60920 | -77.93052 | 38101 ft | 415 kts | 203° |
| 2026-05-04 20:14 | 33.55367 | -77.94944 | 38111 ft | 415 kts | 203° |
| 2026-05-04 20:14 | 33.49842 | -77.96811 | 38105 ft | 414 kts | 203° |
| 2026-05-04 20:15 | 33.44293 | -77.98683 | 38102 ft | 414 kts | 203° |
| 2026-05-04 20:15 | 33.38754 | -78.00550 | 38104 ft | 413 kts | 203° |
| 2026-05-04 20:16 | 33.33212 | -78.02417 | 38109 ft | 413 kts | 203° |
| 2026-05-04 20:16 | 33.27678 | -78.04280 | 38107 ft | 413 kts | 203° |
| 2026-05-04 20:17 | 33.22137 | -78.06142 | 38106 ft | 413 kts | 203° |
| 2026-05-04 20:17 | 33.16613 | -78.07995 | 38106 ft | 413 kts | 203° |
| 2026-05-04 20:18 | 33.11109 | -78.09840 | 38108 ft | 412 kts | 203° |
| 2026-05-04 20:18 | 33.05585 | -78.11689 | 38110 ft | 412 kts | 203° |
| 2026-05-04 20:19 | 33.00067 | -78.13533 | 38107 ft | 412 kts | 203° |
| 2026-05-04 20:19 | 32.94548 | -78.15376 | 38106 ft | 412 kts | 204° |
| 2026-05-04 20:20 | 32.89035 | -78.17214 | 38112 ft | 411 kts | 204° |
| 2026-05-04 20:20 | 32.84441 | -78.18744 | 38107 ft | 411 kts | 204° |
| 2026-05-04 20:21 | 32.78930 | -78.20577 | 38112 ft | 411 kts | 204° |
| 2026-05-04 20:21 | 32.70669 | -78.23321 | 38110 ft | 410 kts | 204° |
| 2026-05-04 20:22 | 32.65194 | -78.25136 | 38109 ft | 410 kts | 204° |
| 2026-05-04 20:22 | 32.59698 | -78.26955 | 38108 ft | 410 kts | 204° |
| 2026-05-04 20:23 | 32.54206 | -78.28771 | 38111 ft | 409 kts | 204° |
| 2026-05-04 20:23 | 32.48721 | -78.30583 | 38110 ft | 409 kts | 204° |
| 2026-05-04 20:24 | 32.43234 | -78.32393 | 38108 ft | 409 kts | 204° |
| 2026-05-04 20:24 | 32.37746 | -78.34202 | 38108 ft | 409 kts | 204° |
| 2026-05-04 20:25 | 32.32260 | -78.36007 | 38112 ft | 409 kts | 204° |
| 2026-05-04 20:25 | 32.26816 | -78.37796 | 38110 ft | 408 kts | 205° |
| 2026-05-04 20:26 | 32.21340 | -78.39593 | 38109 ft | 408 kts | 205° |
| 2026-05-04 20:26 | 32.15870 | -78.41386 | 38110 ft | 408 kts | 205° |
| 2026-05-04 20:27 | 32.10403 | -78.43175 | 38109 ft | 407 kts | 205° |
| 2026-05-04 20:27 | 32.04943 | -78.44961 | 38110 ft | 407 kts | 205° |
| 2026-05-04 20:28 | 31.99527 | -78.46729 | 38108 ft | 406 kts | 205° |
| 2026-05-04 20:28 | 31.94079 | -78.48506 | 38111 ft | 406 kts | 205° |
| 2026-05-04 20:29 | 31.88630 | -78.50282 | 38107 ft | 406 kts | 205° |
| 2026-05-04 20:29 | 31.83185 | -78.52054 | 38109 ft | 405 kts | 205° |
| 2026-05-04 20:30 | 31.77779 | -78.53810 | 38110 ft | 405 kts | 205° |
| 2026-05-04 20:30 | 31.72350 | -78.55573 | 38109 ft | 405 kts | 205° |
| 2026-05-04 20:31 | 31.66918 | -78.57334 | 38120 ft | 405 kts | 205° |
| 2026-05-04 20:31 | 31.61482 | -78.59094 | 38109 ft | 404 kts | 205° |
| 2026-05-04 20:32 | 31.56054 | -78.60850 | 38105 ft | 404 kts | 205° |
| 2026-05-04 20:32 | 31.50654 | -78.62648 | 38112 ft | 403 kts | 206° |
| 2026-05-04 20:33 | 31.45313 | -78.64485 | 38109 ft | 402 kts | 206° |
| 2026-05-04 20:33 | 31.39945 | -78.66335 | 38107 ft | 402 kts | 206° |
| 2026-05-04 20:34 | 31.34576 | -78.68176 | 38104 ft | 402 kts | 205° |
| 2026-05-04 20:34 | 31.29205 | -78.70011 | 38106 ft | 401 kts | 205° |
| 2026-05-04 20:35 | 31.23830 | -78.71845 | 38108 ft | 402 kts | 205° |
| 2026-05-04 20:35 | 31.18501 | -78.73661 | 38106 ft | 402 kts | 205° |
| 2026-05-04 20:36 | 31.13121 | -78.75492 | 38106 ft | 402 kts | 205° |
| 2026-05-04 20:36 | 31.07751 | -78.77317 | 38106 ft | 402 kts | 205° |
| 2026-05-04 20:37 | 31.02374 | -78.79143 | 38099 ft | 402 kts | 205° |
| 2026-05-04 20:37 | 30.96993 | -78.80968 | 38104 ft | 402 kts | 205° |
| 2026-05-04 20:38 | 30.91649 | -78.82778 | 38105 ft | 403 kts | 205° |
| 2026-05-04 20:38 | 30.86259 | -78.84602 | 38104 ft | 403 kts | 205° |
| 2026-05-04 20:39 | 30.80866 | -78.86424 | 38098 ft | 403 kts | 205° |
| 2026-05-04 20:39 | 30.75466 | -78.88247 | 38097 ft | 404 kts | 205° |
| 2026-05-04 20:40 | 30.70060 | -78.90070 | 38102 ft | 404 kts | 205° |
| 2026-05-04 20:40 | 30.64687 | -78.91880 | 38096 ft | 405 kts | 205° |
| 2026-05-04 20:41 | 30.59263 | -78.93705 | 38096 ft | 405 kts | 205° |
| 2026-05-04 20:41 | 30.53837 | -78.95528 | 38097 ft | 406 kts | 205° |
| 2026-05-04 20:42 | 30.48408 | -78.97350 | 38095 ft | 406 kts | 205° |
| 2026-05-04 20:42 | 30.42971 | -78.99169 | 38095 ft | 407 kts | 204° |
| 2026-05-04 20:43 | 30.37439 | -79.00765 | 38093 ft | 411 kts | 201° |
| 2026-05-04 20:43 | 30.31851 | -79.02195 | 38093 ft | 412 kts | 201° |
| 2026-05-04 20:44 | 30.26248 | -79.03621 | 38093 ft | 412 kts | 201° |
| 2026-05-04 20:44 | 30.20657 | -79.05079 | 38095 ft | 412 kts | 201° |
| 2026-05-04 20:45 | 30.15068 | -79.06552 | 38091 ft | 412 kts | 201° |
| 2026-05-04 20:45 | 30.09509 | -79.08008 | 38089 ft | 413 kts | 201° |
| 2026-05-04 20:46 | 30.03908 | -79.09470 | 38090 ft | 413 kts | 201° |
| 2026-05-04 20:46 | 29.98303 | -79.10929 | 38085 ft | 413 kts | 201° |
| 2026-05-04 20:47 | 29.92697 | -79.12388 | 38089 ft | 413 kts | 201° |
| 2026-05-04 20:47 | 29.87079 | -79.13848 | 38093 ft | 414 kts | 201° |
| 2026-05-04 20:48 | 29.81463 | -79.15300 | 38086 ft | 414 kts | 200° |
| 2026-05-04 20:48 | 29.75835 | -79.16737 | 38079 ft | 413 kts | 200° |
| 2026-05-04 20:49 | 29.73029 | -79.17453 | 37935 ft | 415 kts | 200° |
| 2026-05-04 20:49 | 29.70204 | -79.18174 | 37669 ft | 416 kts | 200° |
| 2026-05-04 20:49 | 29.67379 | -79.18894 | 37402 ft | 417 kts | 200° |
| 2026-05-04 20:49 | 29.64542 | -79.19617 | 37139 ft | 417 kts | 200° |
| 2026-05-04 20:50 | 29.61707 | -79.20338 | 36881 ft | 418 kts | 200° |
| 2026-05-04 20:50 | 29.58864 | -79.21061 | 36626 ft | 418 kts | 200° |
| 2026-05-04 20:50 | 29.56024 | -79.21782 | 36361 ft | 418 kts | 200° |
| 2026-05-04 20:50 | 29.53173 | -79.22506 | 36117 ft | 419 kts | 200° |
| 2026-05-04 20:51 | 29.50366 | -79.23219 | 35871 ft | 419 kts | 200° |
| 2026-05-04 20:51 | 29.47514 | -79.23942 | 35627 ft | 420 kts | 200° |
| 2026-05-04 20:51 | 29.44661 | -79.24666 | 35384 ft | 420 kts | 200° |
| 2026-05-04 20:51 | 29.41807 | -79.25388 | 35142 ft | 420 kts | 200° |
| 2026-05-04 20:52 | 29.38940 | -79.26115 | 34903 ft | 421 kts | 200° |
| 2026-05-04 20:52 | 29.36083 | -79.26838 | 34659 ft | 421 kts | 200° |
| 2026-05-04 20:52 | 29.33219 | -79.27562 | 34432 ft | 421 kts | 200° |
| 2026-05-04 20:52 | 29.30354 | -79.28286 | 34201 ft | 422 kts | 200° |
| 2026-05-04 20:53 | 29.27480 | -79.29013 | 33949 ft | 422 kts | 200° |
| 2026-05-04 20:53 | 29.24610 | -79.29738 | 33676 ft | 423 kts | 200° |
| 2026-05-04 20:53 | 29.21732 | -79.30465 | 33410 ft | 424 kts | 200° |
| 2026-05-04 20:53 | 29.18843 | -79.31194 | 33148 ft | 425 kts | 200° |
| 2026-05-04 20:54 | 29.15989 | -79.31914 | 32890 ft | 426 kts | 200° |
| 2026-05-04 20:54 | 29.13085 | -79.32646 | 32632 ft | 428 kts | 200° |
| 2026-05-04 20:54 | 29.10172 | -79.33379 | 32375 ft | 429 kts | 200° |
| 2026-05-04 20:54 | 29.07251 | -79.34114 | 32121 ft | 430 kts | 200° |
| 2026-05-04 20:55 | 29.04323 | -79.34851 | 31858 ft | 431 kts | 200° |
| 2026-05-04 20:55 | 29.01387 | -79.35589 | 31618 ft | 433 kts | 200° |
| 2026-05-04 20:55 | 28.98440 | -79.36330 | 31376 ft | 434 kts | 200° |
| 2026-05-04 20:55 | 28.95486 | -79.37071 | 31126 ft | 435 kts | 200° |
| 2026-05-04 20:56 | 28.92518 | -79.37817 | 30888 ft | 436 kts | 200° |
| 2026-05-04 20:56 | 28.89544 | -79.38563 | 30642 ft | 438 kts | 200° |
| 2026-05-04 20:56 | 28.86566 | -79.39310 | 30407 ft | 439 kts | 200° |
| 2026-05-04 20:56 | 28.83577 | -79.40059 | 30166 ft | 440 kts | 200° |
| 2026-05-04 20:57 | 28.80614 | -79.40802 | 29901 ft | 441 kts | 200° |
| 2026-05-04 20:57 | 28.77614 | -79.41553 | 29624 ft | 442 kts | 199° |
| 2026-05-04 20:57 | 28.74606 | -79.42306 | 29349 ft | 442 kts | 199° |
| 2026-05-04 20:57 | 28.71600 | -79.43057 | 29079 ft | 441 kts | 199° |
| 2026-05-04 20:58 | 28.68608 | -79.43804 | 28808 ft | 439 kts | 199° |
| 2026-05-04 20:58 | 28.65628 | -79.44548 | 28540 ft | 437 kts | 199° |
| 2026-05-04 20:58 | 28.62665 | -79.45287 | 28279 ft | 435 kts | 199° |
| 2026-05-04 20:58 | 28.59704 | -79.46026 | 28017 ft | 434 kts | 199° |
| 2026-05-04 20:59 | 28.56757 | -79.46762 | 27759 ft | 433 kts | 199° |
| 2026-05-04 20:59 | 28.53821 | -79.47494 | 27501 ft | 431 kts | 199° |
| 2026-05-04 20:59 | 28.50926 | -79.48215 | 27253 ft | 430 kts | 198° |
| 2026-05-04 20:59 | 28.48006 | -79.48942 | 26998 ft | 429 kts | 198° |
| 2026-05-04 21:00 | 28.45098 | -79.49666 | 26746 ft | 427 kts | 198° |
| 2026-05-04 21:00 | 28.42196 | -79.50388 | 26503 ft | 426 kts | 198° |
| 2026-05-04 21:00 | 28.39298 | -79.51108 | 26257 ft | 424 kts | 198° |
| 2026-05-04 21:00 | 28.36423 | -79.51822 | 26015 ft | 423 kts | 198° |
| 2026-05-04 21:01 | 28.33551 | -79.52535 | 25776 ft | 422 kts | 198° |
| 2026-05-04 21:01 | 28.30693 | -79.53249 | 25540 ft | 420 kts | 198° |
| 2026-05-04 21:01 | 28.27847 | -79.54006 | 25297 ft | 418 kts | 199° |
| 2026-05-04 21:01 | 28.25024 | -79.54776 | 25063 ft | 417 kts | 199° |
| 2026-05-04 21:02 | 28.22203 | -79.55547 | 24816 ft | 416 kts | 199° |
| 2026-05-04 21:02 | 28.19398 | -79.56313 | 24593 ft | 415 kts | 199° |
| 2026-05-04 21:02 | 28.16592 | -79.57078 | 24362 ft | 414 kts | 199° |
| 2026-05-04 21:02 | 28.13800 | -79.57839 | 24140 ft | 412 kts | 199° |
| 2026-05-04 21:03 | 28.11011 | -79.58599 | 24057 ft | 412 kts | 199° |
| 2026-05-04 21:03 | 28.08222 | -79.59357 | 24052 ft | 412 kts | 198° |
| 2026-05-04 21:03 | 28.05440 | -79.60113 | 24048 ft | 412 kts | 199° |
| 2026-05-04 21:03 | 28.02656 | -79.60870 | 24048 ft | 411 kts | 199° |
| 2026-05-04 21:04 | 27.99905 | -79.61617 | 24048 ft | 412 kts | 199° |
| 2026-05-04 21:04 | 27.97122 | -79.62372 | 23998 ft | 411 kts | 198° |
| 2026-05-04 21:04 | 27.94338 | -79.63126 | 23783 ft | 410 kts | 198° |
| 2026-05-04 21:04 | 27.91567 | -79.63877 | 23543 ft | 409 kts | 198° |
| 2026-05-04 21:05 | 27.88795 | -79.64628 | 23276 ft | 408 kts | 198° |
| 2026-05-04 21:05 | 27.86041 | -79.65373 | 23011 ft | 406 kts | 198° |
| 2026-05-04 21:05 | 27.83295 | -79.66115 | 22747 ft | 405 kts | 198° |
| 2026-05-04 21:05 | 27.80570 | -79.66851 | 22390 ft | 400 kts | 198° |
| 2026-05-04 21:06 | 27.77878 | -79.67578 | 21809 ft | 396 kts | 198° |
| 2026-05-04 21:06 | 27.75203 | -79.68301 | 21175 ft | 394 kts | 198° |
| 2026-05-04 21:06 | 27.72548 | -79.69018 | 20555 ft | 391 kts | 198° |
| 2026-05-04 21:06 | 27.69907 | -79.69731 | 19926 ft | 389 kts | 198° |
| 2026-05-04 21:07 | 27.67286 | -79.70439 | 19306 ft | 387 kts | 198° |
| 2026-05-04 21:07 | 27.64671 | -79.71145 | 18674 ft | 385 kts | 198° |
| 2026-05-04 21:07 | 27.62068 | -79.71847 | 18002 ft | 384 kts | 198° |
| 2026-05-04 21:07 | 27.59519 | -79.72534 | 17362 ft | 380 kts | 198° |
| 2026-05-04 21:08 | 27.56954 | -79.73225 | 16737 ft | 377 kts | 198° |
| 2026-05-04 21:08 | 27.54410 | -79.73910 | 16118 ft | 374 kts | 197° |
| 2026-05-04 21:08 | 27.51885 | -79.74590 | 15515 ft | 371 kts | 197° |
| 2026-05-04 21:08 | 27.49384 | -79.75262 | 14919 ft | 368 kts | 197° |
| 2026-05-04 21:09 | 27.46899 | -79.75930 | 14325 ft | 366 kts | 197° |
| 2026-05-04 21:09 | 27.45257 | -79.76371 | 13936 ft | 365 kts | 197° |
| 2026-05-04 21:09 | 27.42796 | -79.77033 | 13295 ft | 362 kts | 197° |
| 2026-05-04 21:09 | 27.40354 | -79.77688 | 12689 ft | 359 kts | 197° |
| 2026-05-04 21:10 | 27.37939 | -79.78336 | 12116 ft | 355 kts | 196° |
| 2026-05-04 21:10 | 27.35554 | -79.78975 | 11558 ft | 350 kts | 196° |
| 2026-05-04 21:10 | 27.33195 | -79.79607 | 10996 ft | 346 kts | 197° |
| 2026-05-04 21:10 | 27.30863 | -79.80232 | 10450 ft | 343 kts | 197° |
| 2026-05-04 21:11 | 27.28576 | -79.80843 | 10208 ft | 330 kts | 197° |
| 2026-05-04 21:11 | 27.26401 | -79.81422 | 10076 ft | 312 kts | 197° |
| 2026-05-04 21:11 | 27.24365 | -79.81963 | 9942 ft | 290 kts | 197° |
| 2026-05-04 21:11 | 27.22453 | -79.82475 | 9738 ft | 279 kts | 197° |
| 2026-05-04 21:12 | 27.20614 | -79.83148 | 9334 ft | 275 kts | 207° |
| 2026-05-04 21:12 | 27.18913 | -79.84085 | 9065 ft | 271 kts | 211° |
| 2026-05-04 21:12 | 27.17243 | -79.85080 | 8922 ft | 275 kts | 211° |
| 2026-05-04 21:12 | 27.15522 | -79.86115 | 8359 ft | 282 kts | 210° |
| 2026-05-04 21:13 | 27.13805 | -79.87143 | 8074 ft | 275 kts | 210° |
| 2026-05-04 21:13 | 27.12125 | -79.88146 | 7846 ft | 272 kts | 210° |
| 2026-05-04 21:13 | 27.10452 | -79.89146 | 7602 ft | 273 kts | 209° |
| 2026-05-04 21:13 | 27.08772 | -79.90148 | 7360 ft | 274 kts | 208° |
| 2026-05-04 21:14 | 27.07111 | -79.91138 | 7126 ft | 274 kts | 208° |
| 2026-05-04 21:14 | 27.05425 | -79.92141 | 6886 ft | 275 kts | 207° |
| 2026-05-04 21:14 | 27.03732 | -79.93148 | 6639 ft | 275 kts | 207° |
| 2026-05-04 21:14 | 27.02036 | -79.94156 | 6421 ft | 276 kts | 207° |
| 2026-05-04 21:15 | 27.00345 | -79.95161 | 6169 ft | 276 kts | 206° |
| 2026-05-04 21:15 | 26.98639 | -79.96174 | 5919 ft | 276 kts | 206° |
| 2026-05-04 21:15 | 26.96940 | -79.97182 | 5670 ft | 277 kts | 206° |
| 2026-05-04 21:15 | 26.95261 | -79.98240 | 5434 ft | 278 kts | 212° |
| 2026-05-04 21:16 | 26.93685 | -79.99500 | 5194 ft | 278 kts | 216° |
| 2026-05-04 21:16 | 26.92152 | -80.00815 | 4942 ft | 278 kts | 216° |
| 2026-05-04 21:16 | 26.90615 | -80.02148 | 4705 ft | 280 kts | 215° |
| 2026-05-04 21:16 | 26.89072 | -80.03483 | 4455 ft | 280 kts | 216° |
| 2026-05-04 21:17 | 26.87534 | -80.04809 | 4193 ft | 279 kts | 216° |
| 2026-05-04 21:17 | 26.85991 | -80.06138 | 4021 ft | 280 kts | 216° |
| 2026-05-04 21:17 | 26.84491 | -80.07434 | 3995 ft | 268 kts | 216° |
| 2026-05-04 21:17 | 26.83064 | -80.08681 | 3985 ft | 251 kts | 216° |
| 2026-05-04 21:18 | 26.81737 | -80.09863 | 3988 ft | 239 kts | 219° |
| 2026-05-04 21:18 | 26.80755 | -80.11329 | 4027 ft | 236 kts | 248° |
| 2026-05-04 21:18 | 26.80407 | -80.13122 | 4010 ft | 239 kts | 264° |
| 2026-05-04 21:18 | 26.80264 | -80.14983 | 3998 ft | 240 kts | 267° |
| 2026-05-04 21:19 | 26.80150 | -80.16847 | 3995 ft | 240 kts | 266° |
| 2026-05-04 21:19 | 26.80032 | -80.18724 | 3996 ft | 242 kts | 266° |
| 2026-05-04 21:19 | 26.79882 | -80.20660 | 4003 ft | 252 kts | 265° |
| 2026-05-04 21:19 | 26.79706 | -80.22592 | 3997 ft | 248 kts | 264° |
| 2026-05-04 21:20 | 26.79524 | -80.24483 | 3996 ft | 247 kts | 264° |
| 2026-05-04 21:20 | 26.79339 | -80.26395 | 3927 ft | 246 kts | 264° |
| 2026-05-04 21:20 | 26.79154 | -80.28283 | 3553 ft | 243 kts | 264° |
| 2026-05-04 21:20 | 26.78849 | -80.30150 | 3116 ft | 245 kts | 250° |
| 2026-05-04 21:21 | 26.77985 | -80.31772 | 2696 ft | 243 kts | 222° |
| 2026-05-04 21:21 | 26.76553 | -80.32657 | 2423 ft | 231 kts | 187° |
| 2026-05-04 21:21 | 26.75035 | -80.32502 | 2175 ft | 214 kts | 151° |
| 2026-05-04 21:21 | 26.73940 | -80.31503 | 2026 ft | 200 kts | 121° |
| 2026-05-04 21:22 | 26.73193 | -80.30213 | 2004 ft | 198 kts | 115° |
| 2026-05-04 21:22 | 26.72510 | -80.28885 | 1989 ft | 199 kts | 114° |
| 2026-05-04 21:22 | 26.71822 | -80.27537 | 1994 ft | 197 kts | 114° |
| 2026-05-04 21:22 | 26.71154 | -80.26248 | 1992 ft | 184 kts | 115° |
| 2026-05-04 21:23 | 26.70553 | -80.25107 | 1967 ft | 159 kts | 114° |
| 2026-05-04 21:23 | 26.70027 | -80.24117 | 1987 ft | 140 kts | 113° |
| 2026-05-04 21:23 | 26.69540 | -80.23185 | 1993 ft | 138 kts | 113° |
| 2026-05-04 21:23 | 26.69127 | -80.22232 | 1995 ft | 135 kts | 103° |
| 2026-05-04 21:24 | 26.68883 | -80.21228 | 1920 ft | 133 kts | 95° |
| 2026-05-04 21:24 | 26.68771 | -80.20202 | 1752 ft | 133 kts | 89° |
| 2026-05-04 21:24 | 26.68707 | -80.19171 | 1566 ft | 133 kts | 88° |
| 2026-05-04 21:24 | 26.68638 | -80.18138 | 1376 ft | 133 kts | 90° |
| 2026-05-04 21:25 | 26.68559 | -80.17111 | 1185 ft | 132 kts | 88° |
| 2026-05-04 21:25 | 26.68531 | -80.16085 | 1072 ft | 132 kts | 86° |
| 2026-05-04 21:25 | 26.68513 | -80.15050 | 963 ft | 134 kts | 86° |
| 2026-05-04 21:25 | 26.68454 | -80.14014 | 733 ft | 136 kts | 89° |
| 2026-05-04 21:26 | 26.68427 | -80.12981 | 488 ft | 132 kts | 90° |
| 2026-05-04 21:26 | 26.68369 | -80.11950 | 292 ft | 135 kts | 91° |
| 2026-05-04 21:26 | 26.68323 | -80.10919 | 139 ft | 132 kts | 88° |
| 2026-05-04 21:26 | 26.68283 | -80.09910 | 33 ft | 126 kts | 87° |
| 2026-05-04 21:27 | 26.68252 | -80.09185 | 26 ft | 51 kts | 94° |
| 2026-05-04 21:27 | 26.68240 | -80.08937 | 25 ft | 25 kts | 92° |
| 2026-05-04 21:27 | 26.68326 | -80.08843 | 25 ft | 18 kts | 1° |
| 2026-05-04 21:27 | 26.68430 | -80.08847 | 26 ft | 9 kts | 322° |
| 2026-05-04 21:28 | 26.68446 | -80.08906 | 25 ft | 11 kts | 261° |
| 2026-05-04 21:28 | 26.68450 | -80.09070 | 24 ft | 20 kts | 279° |
| 2026-05-04 21:28 | 26.68494 | -80.09103 | 25 ft | 11 kts | 360° |
| 2026-05-04 21:28 | 26.68598 | -80.09092 | 27 ft | 16 kts | 2° |
| 2026-05-04 21:29 | 26.68701 | -80.09088 | 29 ft | 13 kts | 349° |
| 2026-05-04 21:29 | 26.68747 | -80.09139 | 31 ft | 13 kts | 316° |
| 2026-05-04 21:29 | 26.68768 | -80.09161 | 32 ft | 0 kts | 316° |